Panora, Iowa
Current Conditions -  °F | °C
As of 10:35 AM on Friday 24 Oct 2014 (Local Time) from KPRO Reporting Station
Haze Haze  
Wind Chill: 62°   Ceiling: 600
Heat Index: 62°   Visibility: 3mi
Dew Point: 60°   Wind: 12mph
Humidity: 95%   Direction: 190°S
Pressure: 29.94"   Gusts: NA
Location:  41.69°N, 94.36°W
Report Text: KPRO 241535Z AUTO 19010KT 3SM BR OVC006 16/16 A2994 RMK AO2 T01640156
Loading
Personal Weather Stations






























Interactive Weather Map
Tropical Storm Tracking
New forecast layout! Learn more

10-Day Weather Forecast

Advertisements
Track Severe Weather on mobile